sensor_id;sensor_type;location;lat;lon;timestamp;temperature;humidity
36444;DHT22;24692;45.642;13.806;2023-02-05T00:02:11;6.10;98.00
36444;DHT22;24692;45.642;13.806;2023-02-05T00:04:37;6.10;98.20
36444;DHT22;24692;45.642;13.806;2023-02-05T00:07:03;6.00;98.00
36444;DHT22;24692;45.642;13.806;2023-02-05T00:09:30;6.00;98.60
36444;DHT22;24692;45.642;13.806;2023-02-05T00:11:56;5.90;98.40
36444;DHT22;24692;45.642;13.806;2023-02-05T00:14:23;6.00;97.80
36444;DHT22;24692;45.642;13.806;2023-02-05T00:16:50;5.90;97.50
36444;DHT22;24692;45.642;13.806;2023-02-05T00:19:15;5.80;97.90
36444;DHT22;24692;45.642;13.806;2023-02-05T00:21:41;5.70;98.20
36444;DHT22;24692;45.642;13.806;2023-02-05T00:24:07;5.70;98.50
36444;DHT22;24692;45.642;13.806;2023-02-05T00:26:33;5.90;99.90
36444;DHT22;24692;45.642;13.806;2023-02-05T00:28:58;5.90;98.40
36444;DHT22;24692;45.642;13.806;2023-02-05T00:31:24;5.80;98.00
36444;DHT22;24692;45.642;13.806;2023-02-05T00:33:51;5.60;98.40
36444;DHT22;24692;45.642;13.806;2023-02-05T00:36:18;5.60;98.10
36444;DHT22;24692;45.642;13.806;2023-02-05T00:38:44;5.70;98.70
36444;DHT22;24692;45.642;13.806;2023-02-05T00:41:10;5.70;98.70
36444;DHT22;24692;45.642;13.806;2023-02-05T00:43:37;5.80;98.60
36444;DHT22;24692;45.642;13.806;2023-02-05T00:46:02;5.70;99.30
36444;DHT22;24692;45.642;13.806;2023-02-05T00:48:28;5.70;98.40
36444;DHT22;24692;45.642;13.806;2023-02-05T00:50:54;5.70;99.10
36444;DHT22;24692;45.642;13.806;2023-02-05T00:53:21;5.50;98.40
36444;DHT22;24692;45.642;13.806;2023-02-05T00:55:47;5.60;99.00
36444;DHT22;24692;45.642;13.806;2023-02-05T00:58:13;5.50;99.30
36444;DHT22;24692;45.642;13.806;2023-02-05T01:00:39;5.50;98.50
36444;DHT22;24692;45.642;13.806;2023-02-05T01:03:04;5.40;99.30
36444;DHT22;24692;45.642;13.806;2023-02-05T01:05:31;5.50;99.50
36444;DHT22;24692;45.642;13.806;2023-02-05T01:07:57;5.60;99.90
36444;DHT22;24692;45.642;13.806;2023-02-05T01:10:23;5.50;99.10
36444;DHT22;24692;45.642;13.806;2023-02-05T01:12:49;5.40;99.20
36444;DHT22;24692;45.642;13.806;2023-02-05T01:15:15;5.30;99.50
36444;DHT22;24692;45.642;13.806;2023-02-05T01:17:41;5.40;99.90
36444;DHT22;24692;45.642;13.806;2023-02-05T01:20:08;5.40;99.70
36444;DHT22;24692;45.642;13.806;2023-02-05T01:22:34;5.30;99.90
36444;DHT22;24692;45.642;13.806;2023-02-05T01:24:59;5.40;99.60
36444;DHT22;24692;45.642;13.806;2023-02-05T01:27:25;5.40;98.80
36444;DHT22;24692;45.642;13.806;2023-02-05T01:29:51;5.30;99.70
36444;DHT22;24692;45.642;13.806;2023-02-05T01:32:17;5.30;99.00
36444;DHT22;24692;45.642;13.806;2023-02-05T01:34:43;5.30;99.10
36444;DHT22;24692;45.642;13.806;2023-02-05T01:37:09;5.10;99.30
36444;DHT22;24692;45.642;13.806;2023-02-05T01:39:36;5.30;99.90
36444;DHT22;24692;45.642;13.806;2023-02-05T01:42:14;5.30;98.80
36444;DHT22;24692;45.642;13.806;2023-02-05T01:44:40;5.20;99.60
36444;DHT22;24692;45.642;13.806;2023-02-05T01:47:06;5.20;99.60
36444;DHT22;24692;45.642;13.806;2023-02-05T01:49:36;5.20;99.10
36444;DHT22;24692;45.642;13.806;2023-02-05T01:52:06;5.30;99.40
36444;DHT22;24692;45.642;13.806;2023-02-05T01:54:35;5.20;99.90
36444;DHT22;24692;45.642;13.806;2023-02-05T01:57:11;5.10;99.30
36444;DHT22;24692;45.642;13.806;2023-02-05T01:59:40;5.10;99.30
36444;DHT22;24692;45.642;13.806;2023-02-05T02:02:06;5.10;99.80
36444;DHT22;24692;45.642;13.806;2023-02-05T02:07:01;5.10;99.90
36444;DHT22;24692;45.642;13.806;2023-02-05T02:09:27;5.10;99.70
36444;DHT22;24692;45.642;13.806;2023-02-05T02:11:54;5.30;99.40
36444;DHT22;24692;45.642;13.806;2023-02-05T02:14:20;5.30;99.70
36444;DHT22;24692;45.642;13.806;2023-02-05T02:16:47;5.20;99.20
36444;DHT22;24692;45.642;13.806;2023-02-05T02:20:12;5.20;99.90
36444;DHT22;24692;45.642;13.806;2023-02-05T02:33:20;5.10;99.90
36444;DHT22;24692;45.642;13.806;2023-02-05T02:41:03;5.00;99.50
36444;DHT22;24692;45.642;13.806;2023-02-05T02:46:09;4.90;99.90
36444;DHT22;24692;45.642;13.806;2023-02-05T02:48:38;4.90;99.90
36444;DHT22;24692;45.642;13.806;2023-02-05T02:51:07;4.90;99.60
36444;DHT22;24692;45.642;13.806;2023-02-05T02:53:37;4.90;99.90
36444;DHT22;24692;45.642;13.806;2023-02-05T02:56:05;4.80;99.90
36444;DHT22;24692;45.642;13.806;2023-02-05T02:58:42;4.80;99.90
36444;DHT22;24692;45.642;13.806;2023-02-05T03:01:11;4.80;99.90
36444;DHT22;24692;45.642;13.806;2023-02-05T03:03:42;4.80;99.90
36444;DHT22;24692;45.642;13.806;2023-02-05T03:06:09;4.70;99.90
36444;DHT22;24692;45.642;13.806;2023-02-05T03:08:46;4.60;99.90
36444;DHT22;24692;45.642;13.806;2023-02-05T03:11:14;4.50;99.90
36444;DHT22;24692;45.642;13.806;2023-02-05T03:13:41;4.50;99.90
36444;DHT22;24692;45.642;13.806;2023-02-05T03:16:08;4.50;99.90
36444;DHT22;24692;45.642;13.806;2023-02-05T03:18:35;4.60;99.90
36444;DHT22;24692;45.642;13.806;2023-02-05T03:21:26;4.60;99.90
36444;DHT22;24692;45.642;13.806;2023-02-05T03:23:53;4.50;99.90
36444;DHT22;24692;45.642;13.806;2023-02-05T03:26:27;4.60;99.90
36444;DHT22;24692;45.642;13.806;2023-02-05T03:28:58;4.50;99.90
36444;DHT22;24692;45.642;13.806;2023-02-05T03:37:17;4.40;99.90
36444;DHT22;24692;45.642;13.806;2023-02-05T03:45:17;4.10;99.90
36444;DHT22;24692;45.642;13.806;2023-02-05T03:48:01;4.10;99.90
36444;DHT22;24692;45.642;13.806;2023-02-05T03:55:38;4.10;99.90
36444;DHT22;24692;45.642;13.806;2023-02-05T03:58:09;4.10;99.90
36444;DHT22;24692;45.642;13.806;2023-02-05T04:00:37;4.00;99.90
36444;DHT22;24692;45.642;13.806;2023-02-05T04:03:03;4.10;99.90
36444;DHT22;24692;45.642;13.806;2023-02-05T04:05:29;3.90;99.90
36444;DHT22;24692;45.642;13.806;2023-02-05T04:07:55;3.90;99.90
36444;DHT22;24692;45.642;13.806;2023-02-05T04:10:20;3.80;99.90
36444;DHT22;24692;45.642;13.806;2023-02-05T04:12:46;3.80;99.90
36444;DHT22;24692;45.642;13.806;2023-02-05T04:15:12;3.80;99.90
36444;DHT22;24692;45.642;13.806;2023-02-05T04:17:38;3.90;99.90
36444;DHT22;24692;45.642;13.806;2023-02-05T04:20:04;3.80;99.90
36444;DHT22;24692;45.642;13.806;2023-02-05T04:22:30;3.80;99.90
36444;DHT22;24692;45.642;13.806;2023-02-05T04:24:56;3.80;99.90
36444;DHT22;24692;45.642;13.806;2023-02-05T04:27:22;3.70;99.90
36444;DHT22;24692;45.642;13.806;2023-02-05T04:29:47;3.60;99.90
36444;DHT22;24692;45.642;13.806;2023-02-05T04:32:13;3.70;99.90
36444;DHT22;24692;45.642;13.806;2023-02-05T04:34:39;3.90;99.90
36444;DHT22;24692;45.642;13.806;2023-02-05T04:37:05;3.90;99.90
36444;DHT22;24692;45.642;13.806;2023-02-05T04:39:30;3.70;99.90
36444;DHT22;24692;45.642;13.806;2023-02-05T04:41:56;3.80;99.90
36444;DHT22;24692;45.642;13.806;2023-02-05T04:44:22;3.80;99.90
36444;DHT22;24692;45.642;13.806;2023-02-05T04:46:47;3.90;99.90
36444;DHT22;24692;45.642;13.806;2023-02-05T04:49:13;3.90;99.90
36444;DHT22;24692;45.642;13.806;2023-02-05T04:51:39;3.90;99.90
36444;DHT22;24692;45.642;13.806;2023-02-05T04:54:04;3.80;99.90
36444;DHT22;24692;45.642;13.806;2023-02-05T04:56:30;3.80;99.90
36444;DHT22;24692;45.642;13.806;2023-02-05T04:58:56;3.80;99.90
36444;DHT22;24692;45.642;13.806;2023-02-05T05:01:22;3.80;99.90
36444;DHT22;24692;45.642;13.806;2023-02-05T05:03:48;3.90;99.90
36444;DHT22;24692;45.642;13.806;2023-02-05T05:06:16;3.90;99.90
36444;DHT22;24692;45.642;13.806;2023-02-05T05:08:42;3.90;99.90
36444;DHT22;24692;45.642;13.806;2023-02-05T05:11:10;4.00;99.90
36444;DHT22;24692;45.642;13.806;2023-02-05T05:13:37;3.90;99.90
36444;DHT22;24692;45.642;13.806;2023-02-05T05:16:04;3.80;99.90
36444;DHT22;24692;45.642;13.806;2023-02-05T05:18:30;3.80;99.90
36444;DHT22;24692;45.642;13.806;2023-02-05T05:20:56;3.70;99.90
36444;DHT22;24692;45.642;13.806;2023-02-05T05:23:22;3.70;99.90
36444;DHT22;24692;45.642;13.806;2023-02-05T05:25:48;3.80;99.90
36444;DHT22;24692;45.642;13.806;2023-02-05T05:28:15;4.00;99.90
36444;DHT22;24692;45.642;13.806;2023-02-05T05:30:43;4.00;99.90
36444;DHT22;24692;45.642;13.806;2023-02-05T05:33:09;3.90;99.90
36444;DHT22;24692;45.642;13.806;2023-02-05T05:35:35;3.90;99.90
36444;DHT22;24692;45.642;13.806;2023-02-05T05:38:02;3.90;99.90
36444;DHT22;24692;45.642;13.806;2023-02-05T05:40:28;3.70;99.90
36444;DHT22;24692;45.642;13.806;2023-02-05T05:43:15;3.70;99.90
36444;DHT22;24692;45.642;13.806;2023-02-05T05:46:00;3.80;99.90
36444;DHT22;24692;45.642;13.806;2023-02-05T05:48:26;3.80;99.90
36444;DHT22;24692;45.642;13.806;2023-02-05T05:50:52;4.00;99.90
36444;DHT22;24692;45.642;13.806;2023-02-05T05:53:17;3.90;99.90
36444;DHT22;24692;45.642;13.806;2023-02-05T05:55:43;4.00;99.90
36444;DHT22;24692;45.642;13.806;2023-02-05T05:58:09;4.00;99.90
36444;DHT22;24692;45.642;13.806;2023-02-05T06:00:36;3.90;99.90
36444;DHT22;24692;45.642;13.806;2023-02-05T06:03:02;4.10;99.90
36444;DHT22;24692;45.642;13.806;2023-02-05T06:05:29;4.20;99.90
36444;DHT22;24692;45.642;13.806;2023-02-05T06:07:54;4.20;99.90
36444;DHT22;24692;45.642;13.806;2023-02-05T06:10:20;4.20;99.90
36444;DHT22;24692;45.642;13.806;2023-02-05T06:12:46;4.20;99.90
36444;DHT22;24692;45.642;13.806;2023-02-05T06:15:11;4.20;99.90
36444;DHT22;24692;45.642;13.806;2023-02-05T06:17:37;4.20;99.90
36444;DHT22;24692;45.642;13.806;2023-02-05T06:20:04;4.10;99.90
36444;DHT22;24692;45.642;13.806;2023-02-05T06:22:29;4.10;99.90
36444;DHT22;24692;45.642;13.806;2023-02-05T06:24:55;4.20;99.90
36444;DHT22;24692;45.642;13.806;2023-02-05T06:27:21;4.20;99.90
36444;DHT22;24692;45.642;13.806;2023-02-05T06:29:47;4.20;99.90
36444;DHT22;24692;45.642;13.806;2023-02-05T06:32:12;4.30;99.90
36444;DHT22;24692;45.642;13.806;2023-02-05T06:34:38;4.30;99.90
36444;DHT22;24692;45.642;13.806;2023-02-05T06:37:04;4.30;99.90
36444;DHT22;24692;45.642;13.806;2023-02-05T06:39:29;4.20;99.90
36444;DHT22;24692;45.642;13.806;2023-02-05T06:41:55;4.20;99.90
36444;DHT22;24692;45.642;13.806;2023-02-05T06:44:21;4.20;99.90
36444;DHT22;24692;45.642;13.806;2023-02-05T06:46:46;4.30;99.90
36444;DHT22;24692;45.642;13.806;2023-02-05T06:49:12;4.20;99.90
36444;DHT22;24692;45.642;13.806;2023-02-05T06:51:37;4.20;99.90
36444;DHT22;24692;45.642;13.806;2023-02-05T06:54:03;4.10;99.90
36444;DHT22;24692;45.642;13.806;2023-02-05T06:56:29;4.20;99.90
36444;DHT22;24692;45.642;13.806;2023-02-05T06:58:54;4.20;99.90
36444;DHT22;24692;45.642;13.806;2023-02-05T07:01:20;4.20;99.90
36444;DHT22;24692;45.642;13.806;2023-02-05T07:03:46;4.10;99.90
36444;DHT22;24692;45.642;13.806;2023-02-05T07:06:13;4.20;99.90
36444;DHT22;24692;45.642;13.806;2023-02-05T07:08:38;4.30;99.90
36444;DHT22;24692;45.642;13.806;2023-02-05T07:11:04;4.30;99.90
36444;DHT22;24692;45.642;13.806;2023-02-05T07:13:30;4.20;99.90
36444;DHT22;24692;45.642;13.806;2023-02-05T07:15:56;4.20;99.90
36444;DHT22;24692;45.642;13.806;2023-02-05T07:18:21;4.30;99.90
36444;DHT22;24692;45.642;13.806;2023-02-05T07:20:48;4.40;99.90
36444;DHT22;24692;45.642;13.806;2023-02-05T07:23:14;4.40;99.90
36444;DHT22;24692;45.642;13.806;2023-02-05T07:25:39;4.30;99.90
36444;DHT22;24692;45.642;13.806;2023-02-05T07:28:07;4.40;99.90
36444;DHT22;24692;45.642;13.806;2023-02-05T07:30:36;4.40;99.90
36444;DHT22;24692;45.642;13.806;2023-02-05T07:33:02;4.60;99.90
36444;DHT22;24692;45.642;13.806;2023-02-05T07:35:31;4.40;99.90
36444;DHT22;24692;45.642;13.806;2023-02-05T07:37:59;4.40;99.90
36444;DHT22;24692;45.642;13.806;2023-02-05T07:40:25;4.40;99.90
36444;DHT22;24692;45.642;13.806;2023-02-05T07:42:50;4.40;99.90
36444;DHT22;24692;45.642;13.806;2023-02-05T07:45:16;4.60;99.90
36444;DHT22;24692;45.642;13.806;2023-02-05T07:47:42;4.60;99.90
36444;DHT22;24692;45.642;13.806;2023-02-05T07:50:07;4.70;99.90
36444;DHT22;24692;45.642;13.806;2023-02-05T07:52:33;4.70;99.90
36444;DHT22;24692;45.642;13.806;2023-02-05T07:54:59;4.70;99.90
36444;DHT22;24692;45.642;13.806;2023-02-05T07:57:25;4.70;99.90
36444;DHT22;24692;45.642;13.806;2023-02-05T07:59:53;4.60;99.90
36444;DHT22;24692;45.642;13.806;2023-02-05T08:02:19;4.60;99.90
36444;DHT22;24692;45.642;13.806;2023-02-05T08:04:44;4.50;99.90
36444;DHT22;24692;45.642;13.806;2023-02-05T08:07:11;4.70;99.90
36444;DHT22;24692;45.642;13.806;2023-02-05T08:09:37;4.70;99.90
36444;DHT22;24692;45.642;13.806;2023-02-05T08:12:03;4.60;99.90
36444;DHT22;24692;45.642;13.806;2023-02-05T08:14:29;4.70;99.90
36444;DHT22;24692;45.642;13.806;2023-02-05T08:16:56;4.90;99.90
36444;DHT22;24692;45.642;13.806;2023-02-05T08:19:23;4.80;99.90
36444;DHT22;24692;45.642;13.806;2023-02-05T08:21:49;4.70;99.90
36444;DHT22;24692;45.642;13.806;2023-02-05T08:24:15;4.60;99.90
36444;DHT22;24692;45.642;13.806;2023-02-05T08:26:41;4.50;99.90
36444;DHT22;24692;45.642;13.806;2023-02-05T08:29:07;4.40;99.90
36444;DHT22;24692;45.642;13.806;2023-02-05T08:31:33;4.60;99.90
36444;DHT22;24692;45.642;13.806;2023-02-05T08:34:00;4.70;99.90
36444;DHT22;24692;45.642;13.806;2023-02-05T08:36:26;4.90;99.90
36444;DHT22;24692;45.642;13.806;2023-02-05T08:38:51;4.90;99.90
36444;DHT22;24692;45.642;13.806;2023-02-05T08:41:17;4.80;99.90
36444;DHT22;24692;45.642;13.806;2023-02-05T08:43:45;4.80;99.90
36444;DHT22;24692;45.642;13.806;2023-02-05T08:46:12;4.90;99.90
36444;DHT22;24692;45.642;13.806;2023-02-05T08:48:39;5.10;99.90
36444;DHT22;24692;45.642;13.806;2023-02-05T08:51:05;5.20;99.90
36444;DHT22;24692;45.642;13.806;2023-02-05T08:53:33;5.30;99.90
36444;DHT22;24692;45.642;13.806;2023-02-05T08:56:00;5.50;99.90
36444;DHT22;24692;45.642;13.806;2023-02-05T08:58:26;5.50;99.90
36444;DHT22;24692;45.642;13.806;2023-02-05T09:01:05;5.50;99.90
36444;DHT22;24692;45.642;13.806;2023-02-05T09:03:31;5.50;99.90
36444;DHT22;24692;45.642;13.806;2023-02-05T09:05:58;5.40;99.90
36444;DHT22;24692;45.642;13.806;2023-02-05T09:08:25;5.30;99.90
36444;DHT22;24692;45.642;13.806;2023-02-05T09:10:51;5.30;99.90
36444;DHT22;24692;45.642;13.806;2023-02-05T09:13:17;5.20;99.90
36444;DHT22;24692;45.642;13.806;2023-02-05T09:15:44;5.30;99.90
36444;DHT22;24692;45.642;13.806;2023-02-05T09:18:10;5.40;99.90
36444;DHT22;24692;45.642;13.806;2023-02-05T09:20:41;5.60;99.90
36444;DHT22;24692;45.642;13.806;2023-02-05T09:23:09;5.60;99.90
36444;DHT22;24692;45.642;13.806;2023-02-05T09:25:39;5.50;99.90
36444;DHT22;24692;45.642;13.806;2023-02-05T09:28:06;5.70;99.90
36444;DHT22;24692;45.642;13.806;2023-02-05T09:30:38;5.80;99.90
36444;DHT22;24692;45.642;13.806;2023-02-05T09:33:04;6.00;99.90
36444;DHT22;24692;45.642;13.806;2023-02-05T09:35:31;6.00;99.90
36444;DHT22;24692;45.642;13.806;2023-02-05T09:37:57;6.20;99.90
36444;DHT22;24692;45.642;13.806;2023-02-05T09:40:28;6.30;99.90
36444;DHT22;24692;45.642;13.806;2023-02-05T09:45:55;6.50;99.90
36444;DHT22;24692;45.642;13.806;2023-02-05T09:51:19;6.50;99.90
36444;DHT22;24692;45.642;13.806;2023-02-05T09:53:50;6.40;99.90
36444;DHT22;24692;45.642;13.806;2023-02-05T09:56:17;6.10;99.90
36444;DHT22;24692;45.642;13.806;2023-02-05T09:58:46;5.90;99.90
36444;DHT22;24692;45.642;13.806;2023-02-05T10:04:01;5.90;99.90
36444;DHT22;24692;45.642;13.806;2023-02-05T10:12:21;6.40;99.90
36444;DHT22;24692;45.642;13.806;2023-02-05T10:23:27;6.30;99.90
36444;DHT22;24692;45.642;13.806;2023-02-05T10:26:15;6.10;99.90
36444;DHT22;24692;45.642;13.806;2023-02-05T10:34:56;5.80;99.90
36444;DHT22;24692;45.642;13.806;2023-02-05T10:37:45;5.70;99.90
36444;DHT22;24692;45.642;13.806;2023-02-05T10:40:21;5.60;99.90
36444;DHT22;24692;45.642;13.806;2023-02-05T10:42:56;5.40;99.90
36444;DHT22;24692;45.642;13.806;2023-02-05T10:45:29;5.40;99.90
36444;DHT22;24692;45.642;13.806;2023-02-05T11:07:31;5.90;99.90
36444;DHT22;24692;45.642;13.806;2023-02-05T11:12:58;5.90;99.90
36444;DHT22;24692;45.642;13.806;2023-02-05T11:15:28;6.10;99.90
36444;DHT22;24692;45.642;13.806;2023-02-05T11:18:00;6.00;99.90
36444;DHT22;24692;45.642;13.806;2023-02-05T11:23:18;6.80;99.90
36444;DHT22;24692;45.642;13.806;2023-02-05T11:25:49;6.90;99.90
36444;DHT22;24692;45.642;13.806;2023-02-05T11:38:13;8.30;99.90
36444;DHT22;24692;45.642;13.806;2023-02-05T11:40:51;8.20;99.70
36444;DHT22;24692;45.642;13.806;2023-02-05T11:43:29;8.00;99.90
36444;DHT22;24692;45.642;13.806;2023-02-05T11:45:57;8.40;99.90
36444;DHT22;24692;45.642;13.806;2023-02-05T11:48:43;8.80;99.40
36444;DHT22;24692;45.642;13.806;2023-02-05T11:51:15;8.80;99.30
36444;DHT22;24692;45.642;13.806;2023-02-05T11:57:40;9.60;98.00
36444;DHT22;24692;45.642;13.806;2023-02-05T12:02:41;10.70;96.40
36444;DHT22;24692;45.642;13.806;2023-02-05T12:07:51;10.90;96.00
36444;DHT22;24692;45.642;13.806;2023-02-05T12:10:42;11.60;95.20
36444;DHT22;24692;45.642;13.806;2023-02-05T12:19:44;13.90;92.60
36444;DHT22;24692;45.642;13.806;2023-02-05T12:31:20;13.10;91.10
36444;DHT22;24692;45.642;13.806;2023-02-05T12:37:40;13.90;91.30
36444;DHT22;24692;45.642;13.806;2023-02-05T12:43:29;16.50;86.20
36444;DHT22;24692;45.642;13.806;2023-02-05T12:48:29;17.90;84.10
36444;DHT22;24692;45.642;13.806;2023-02-05T12:56:51;15.60;85.20
36444;DHT22;24692;45.642;13.806;2023-02-05T13:06:03;14.90;82.80
36444;DHT22;24692;45.642;13.806;2023-02-05T13:12:02;15.70;83.40
36444;DHT22;24692;45.642;13.806;2023-02-05T13:17:28;14.40;81.10
36444;DHT22;24692;45.642;13.806;2023-02-05T13:20:03;14.20;84.60
36444;DHT22;24692;45.642;13.806;2023-02-05T13:25:37;16.20;82.40
36444;DHT22;24692;45.642;13.806;2023-02-05T13:34:03;15.90;80.50
36444;DHT22;24692;45.642;13.806;2023-02-05T13:45:50;14.40;82.20
36444;DHT22;24692;45.642;13.806;2023-02-05T13:51:54;14.40;82.70
36444;DHT22;24692;45.642;13.806;2023-02-05T14:06:39;10.50;88.70
36444;DHT22;24692;45.642;13.806;2023-02-05T14:09:53;10.10;89.10
36444;DHT22;24692;45.642;13.806;2023-02-05T14:12:39;10.20;89.60
36444;DHT22;24692;45.642;13.806;2023-02-05T14:24:49;10.50;90.00
36444;DHT22;24692;45.642;13.806;2023-02-05T14:33:25;9.40;91.30
36444;DHT22;24692;45.642;13.806;2023-02-05T14:39:33;8.90;91.90
36444;DHT22;24692;45.642;13.806;2023-02-05T14:52:29;8.00;93.10
36444;DHT22;24692;45.642;13.806;2023-02-05T14:57:59;7.80;94.20
36444;DHT22;24692;45.642;13.806;2023-02-05T15:03:57;7.80;94.00
36444;DHT22;24692;45.642;13.806;2023-02-05T15:07:01;7.30;94.60
36444;DHT22;24692;45.642;13.806;2023-02-05T15:09:55;7.30;95.10
36444;DHT22;24692;45.642;13.806;2023-02-05T15:13:10;7.50;95.50
36444;DHT22;24692;45.642;13.806;2023-02-05T15:25:59;6.60;96.10
36444;DHT22;24692;45.642;13.806;2023-02-05T15:29:00;6.60;96.30
36444;DHT22;24692;45.642;13.806;2023-02-05T15:34:43;6.40;96.70
36444;DHT22;24692;45.642;13.806;2023-02-05T15:40:42;6.30;97.70
36444;DHT22;24692;45.642;13.806;2023-02-05T15:49:00;6.00;97.80
36444;DHT22;24692;45.642;13.806;2023-02-05T16:10:25;5.40;98.90
36444;DHT22;24692;45.642;13.806;2023-02-05T16:13:16;5.50;99.20
36444;DHT22;24692;45.642;13.806;2023-02-05T16:15:55;5.40;98.70
36444;DHT22;24692;45.642;13.806;2023-02-05T16:18:46;5.30;98.90
36444;DHT22;24692;45.642;13.806;2023-02-05T16:21:29;5.30;99.90
36444;DHT22;24692;45.642;13.806;2023-02-05T16:24:04;5.40;99.10
36444;DHT22;24692;45.642;13.806;2023-02-05T16:32:03;5.10;99.40
36444;DHT22;24692;45.642;13.806;2023-02-05T16:34:32;5.00;99.80
36444;DHT22;24692;45.642;13.806;2023-02-05T16:37:03;5.00;99.90
36444;DHT22;24692;45.642;13.806;2023-02-05T16:39:43;5.10;99.90
36444;DHT22;24692;45.642;13.806;2023-02-05T16:45:24;5.00;99.30
36444;DHT22;24692;45.642;13.806;2023-02-05T16:48:19;5.00;99.90
36444;DHT22;24692;45.642;13.806;2023-02-05T16:50:47;5.00;99.60
36444;DHT22;24692;45.642;13.806;2023-02-05T16:53:22;4.90;99.90
36444;DHT22;24692;45.642;13.806;2023-02-05T16:55:51;5.00;99.90
36444;DHT22;24692;45.642;13.806;2023-02-05T16:58:21;5.00;99.90
36444;DHT22;24692;45.642;13.806;2023-02-05T17:00:59;4.90;99.90
36444;DHT22;24692;45.642;13.806;2023-02-05T17:03:33;4.90;99.90
36444;DHT22;24692;45.642;13.806;2023-02-05T17:06:01;5.00;99.90
36444;DHT22;24692;45.642;13.806;2023-02-05T17:08:33;4.90;99.90
36444;DHT22;24692;45.642;13.806;2023-02-05T17:11:06;4.90;99.90
36444;DHT22;24692;45.642;13.806;2023-02-05T17:13:40;5.00;99.90
36444;DHT22;24692;45.642;13.806;2023-02-05T17:16:30;4.90;99.90
36444;DHT22;24692;45.642;13.806;2023-02-05T17:18:58;5.00;99.90
36444;DHT22;24692;45.642;13.806;2023-02-05T17:21:28;5.10;99.90
36444;DHT22;24692;45.642;13.806;2023-02-05T17:23:55;5.20;99.90
36444;DHT22;24692;45.642;13.806;2023-02-05T17:26:22;5.20;99.90
36444;DHT22;24692;45.642;13.806;2023-02-05T17:28:54;5.20;99.90
36444;DHT22;24692;45.642;13.806;2023-02-05T17:31:21;5.20;99.90
36444;DHT22;24692;45.642;13.806;2023-02-05T17:33:52;5.10;99.90
36444;DHT22;24692;45.642;13.806;2023-02-05T17:36:18;5.00;99.90
36444;DHT22;24692;45.642;13.806;2023-02-05T17:38:44;4.90;99.90
36444;DHT22;24692;45.642;13.806;2023-02-05T17:41:16;4.90;99.90
36444;DHT22;24692;45.642;13.806;2023-02-05T17:44:01;5.10;99.90
36444;DHT22;24692;45.642;13.806;2023-02-05T17:46:26;5.20;99.90
36444;DHT22;24692;45.642;13.806;2023-02-05T17:48:52;5.20;99.90
36444;DHT22;24692;45.642;13.806;2023-02-05T17:51:19;5.10;99.90
36444;DHT22;24692;45.642;13.806;2023-02-05T17:53:46;5.00;99.90
36444;DHT22;24692;45.642;13.806;2023-02-05T17:56:12;4.90;99.90
36444;DHT22;24692;45.642;13.806;2023-02-05T17:58:38;4.90;99.90
36444;DHT22;24692;45.642;13.806;2023-02-05T18:01:04;5.00;99.90
36444;DHT22;24692;45.642;13.806;2023-02-05T18:03:30;5.00;99.90
36444;DHT22;24692;45.642;13.806;2023-02-05T18:05:57;5.00;99.90
36444;DHT22;24692;45.642;13.806;2023-02-05T18:08:23;5.00;99.90
36444;DHT22;24692;45.642;13.806;2023-02-05T18:10:49;5.10;99.90
36444;DHT22;24692;45.642;13.806;2023-02-05T18:13:15;5.10;99.90
36444;DHT22;24692;45.642;13.806;2023-02-05T18:15:42;5.10;99.90
36444;DHT22;24692;45.642;13.806;2023-02-05T18:18:08;5.10;99.90
36444;DHT22;24692;45.642;13.806;2023-02-05T18:20:36;5.10;99.90
36444;DHT22;24692;45.642;13.806;2023-02-05T18:23:03;5.10;99.90
36444;DHT22;24692;45.642;13.806;2023-02-05T18:25:29;4.90;99.90
36444;DHT22;24692;45.642;13.806;2023-02-05T18:27:54;4.90;99.90
36444;DHT22;24692;45.642;13.806;2023-02-05T18:30:21;5.00;99.90
36444;DHT22;24692;45.642;13.806;2023-02-05T18:32:47;4.90;99.90
36444;DHT22;24692;45.642;13.806;2023-02-05T18:35:12;4.90;99.90
36444;DHT22;24692;45.642;13.806;2023-02-05T18:37:39;4.90;99.90
36444;DHT22;24692;45.642;13.806;2023-02-05T18:40:05;4.80;99.90
36444;DHT22;24692;45.642;13.806;2023-02-05T18:42:31;4.80;99.90
36444;DHT22;24692;45.642;13.806;2023-02-05T18:44:56;4.70;99.90
36444;DHT22;24692;45.642;13.806;2023-02-05T18:47:22;4.70;99.90
36444;DHT22;24692;45.642;13.806;2023-02-05T18:49:48;4.70;99.90
36444;DHT22;24692;45.642;13.806;2023-02-05T18:52:13;4.70;99.90
36444;DHT22;24692;45.642;13.806;2023-02-05T18:54:39;4.70;99.90
36444;DHT22;24692;45.642;13.806;2023-02-05T18:57:05;4.80;99.90
36444;DHT22;24692;45.642;13.806;2023-02-05T18:59:30;4.70;99.90
36444;DHT22;24692;45.642;13.806;2023-02-05T19:01:56;4.50;99.90
36444;DHT22;24692;45.642;13.806;2023-02-05T19:04:22;4.50;99.90
36444;DHT22;24692;45.642;13.806;2023-02-05T19:06:50;4.40;99.90
36444;DHT22;24692;45.642;13.806;2023-02-05T19:09:23;4.40;99.90
36444;DHT22;24692;45.642;13.806;2023-02-05T19:11:50;4.40;99.90
36444;DHT22;24692;45.642;13.806;2023-02-05T19:14:18;4.40;99.90
36444;DHT22;24692;45.642;13.806;2023-02-05T19:16:44;4.40;99.90
36444;DHT22;24692;45.642;13.806;2023-02-05T19:19:16;4.40;99.90
36444;DHT22;24692;45.642;13.806;2023-02-05T19:21:42;4.40;99.90
36444;DHT22;24692;45.642;13.806;2023-02-05T19:24:10;4.40;99.90
36444;DHT22;24692;45.642;13.806;2023-02-05T19:26:38;4.40;99.90
36444;DHT22;24692;45.642;13.806;2023-02-05T19:29:13;4.50;99.90
36444;DHT22;24692;45.642;13.806;2023-02-05T19:31:39;4.40;99.90
36444;DHT22;24692;45.642;13.806;2023-02-05T19:34:05;4.50;99.90
36444;DHT22;24692;45.642;13.806;2023-02-05T19:36:32;4.50;99.90
36444;DHT22;24692;45.642;13.806;2023-02-05T19:39:02;4.50;99.90
36444;DHT22;24692;45.642;13.806;2023-02-05T19:41:30;4.40;99.90
36444;DHT22;24692;45.642;13.806;2023-02-05T19:43:58;4.40;99.90
36444;DHT22;24692;45.642;13.806;2023-02-05T19:46:32;4.40;99.90
36444;DHT22;24692;45.642;13.806;2023-02-05T19:49:08;4.40;99.90
36444;DHT22;24692;45.642;13.806;2023-02-05T19:51:34;4.50;99.90
36444;DHT22;24692;45.642;13.806;2023-02-05T19:54:00;4.50;99.90
36444;DHT22;24692;45.642;13.806;2023-02-05T19:56:27;4.40;99.90
36444;DHT22;24692;45.642;13.806;2023-02-05T19:58:54;4.30;99.90
36444;DHT22;24692;45.642;13.806;2023-02-05T20:01:28;4.20;99.90
36444;DHT22;24692;45.642;13.806;2023-02-05T20:03:56;4.30;99.90
36444;DHT22;24692;45.642;13.806;2023-02-05T20:06:25;4.30;99.90
36444;DHT22;24692;45.642;13.806;2023-02-05T20:08:51;4.30;99.90
36444;DHT22;24692;45.642;13.806;2023-02-05T20:11:17;4.10;99.90
36444;DHT22;24692;45.642;13.806;2023-02-05T20:13:43;4.10;99.90
36444;DHT22;24692;45.642;13.806;2023-02-05T20:16:16;4.20;99.90
36444;DHT22;24692;45.642;13.806;2023-02-05T20:18:43;4.20;99.90